Montague, CA (96064)

2:28 AM PST on February 06, 2016 (GMT -0800)
Mount Shasta | | Change Station
CLOSE
Current Station
Airport
Location: Mount Shasta,
Elevation: 3533 ft
Nearby Weather Stations

Elev 3533 ft 41.32 °N, 122.32 °W | Updated 32 minutes ago

Overcast
Overcast
39 °F
Feels Like 39 °F
N
0
Wind Variable Wind from North

Today
High -- | Low -- °F
--% Chance of Precip.
Yesterday
High -- | Low -- °F
Precip. -- in
Pressure 30.48 in
Visibility 10.0 miles
Clouds Overcast 8000 ft
Dew Point 31 °F
Humidity 73%
Rainfall 0.00 in
Snow Depth Not available.
7:14 AM 5:29 PM
Waning Crescent, 6% visible
METAR KMHS 060956Z AUTO 00000KT 10SM OVC080 04/M01 A3042 RMK AO2 SLP320 T00391006
Pressure 30.48 in
Visibility 10.0 miles
Clouds Overcast 8000 ft
Dew Point 31 °F
Humidity 73%
Rainfall 0.00 in
Snow Depth Not available.
7:14 AM 5:29 PM
Waning Crescent, 6% visible
METAR KMHS 060956Z AUTO 00000KT 10SM OVC080 04/M01 A3042 RMK AO2 SLP320 T00391006

10-Day Weather Forecast

Almanac

Astronomy

Feb. 06, 2016 Rise Set
Actual Time
Civil Twilight
Nautical Twilight
Astronomical Twilight
Moon
Length of Visible Light
Length of Day
Tomorrow will be .
, % of the Moon is Illuminated

Today's Extremes

State Highs State Lows

Community

WunderPhotos

Upload Photos

1,890,933 photos uploaded!

WunderBlog® & News

Nearby

Air Quality

  Air Quality AQ Index Pollutant
Not available.

Snow Depth

Station Depth Elevation

Earthquake Activity

City Distance Mag. Time & Date
Minimum magnitude displayed is 2.5.

Coastal Water Temperatures

Place Temperature

Stations

Nearby Weather Stations

Station Location Temp. Windchill Dew Point Humidity Wind Precip. Elev Updated Type
                   

Watches & Warnings

There are currently no watches in effect.